YPPF weather

Adelaide Parafield Airport
Adelaide, South Australia, Australia

Public forecast

Using degrees Celsius for public forecast. Weather courtesy of forecast.io.

METAR (pilot weather report)

Closest report is Adelaide International Airport, 10.4 nm (19.3 km) SSW. Retrieved 2018/09/21 13:30 UTC (15 minutes ago):

YPAD 211330Z 09004KT CAVOK 11/09 Q1027 NOSIG

TAF (pilot weather forecast)

Closest forecast is Adelaide International Airport, 10.4 nm (19.3 km) SSW. Retrieved 2018/09/21 12:00 UTC (2 hours ago):

TAF YPAD 211110Z 2112/2218 VRB05KT CAVOK FM220100 23008KT CAVOK FM220900 15008KT CAVOK